Terminal Aerodrome Forecast
Issued by NWS

Home | Current Version | Previous Version | Text Only | Print | Product List | Glossary On
Versions: 1 2 3 4 5 6 7 8 9 10 11 12 13 14 15 16 17 18 19 20 21 22
000
FTUS41 KALY 251137
TAFPSF
TAF
KPSF 251137Z 2512/2612 20008G14KT P6SM SKC WS020/23035KT
     FM251400 20008KT P6SM FEW200
     FM252100 23006KT P6SM VCSH BKN060
     FM260000 28006KT P6SM BKN040 PROB30 2600/2606 4SM -SHRA OVC025
     FM260600 30009KT P6SM BKN030 PROB30 2606/2612 2SM -SHRASN
      OVC015=

USA.gov is the U.S. government's official web portal to all federal, state and local government web resources and services.